createdAt,value
2022-09-07T00:00:00.253Z,6.03
2022-09-07T00:03:07.972Z,6.07
2022-09-07T00:06:15.454Z,6.68
2022-09-07T00:09:20.673Z,6.18
2022-09-07T00:12:25.607Z,6.93
2022-09-07T00:15:31.220Z,6.65
2022-09-07T00:18:42.482Z,6.65
2022-09-07T00:21:50.715Z,6.43
2022-09-07T00:24:55.727Z,8.23
2022-09-07T00:28:00.634Z,11.93
2022-09-07T00:31:06.044Z,8.68
2022-09-07T00:34:13.641Z,8.43
2022-09-07T00:37:18.567Z,8.02
2022-09-07T00:40:23.498Z,7.10
2022-09-07T00:43:37.349Z,9.02
2022-09-07T00:46:43.471Z,7.63
2022-09-07T00:49:55.346Z,7.57
2022-09-07T00:53:04.764Z,7.97
2022-09-07T00:56:10.490Z,8.30
2022-09-07T00:59:18.875Z,7.50
2022-09-07T01:02:24.391Z,7.75
2022-09-07T01:05:35.560Z,7.93
2022-09-07T01:08:41.589Z,8.43
2022-09-07T01:11:51.067Z,9.60
2022-09-07T01:14:57.226Z,8.20
2022-09-07T01:18:09.886Z,8.48
2022-09-07T01:21:45.647Z,9.40
2022-09-07T01:25:04.942Z,8.95
2022-09-07T01:28:18.595Z,9.38
2022-09-07T01:31:28.606Z,9.77
2022-09-07T01:34:34.667Z,8.60
2022-09-07T01:37:45.826Z,9.63
2022-09-07T01:40:56.747Z,9.38
2022-09-07T01:44:08.465Z,9.25
2022-09-07T01:47:18.171Z,9.38
2022-09-07T01:50:26.362Z,9.38
2022-09-07T01:53:36.697Z,10.27
2022-09-07T01:56:45.338Z,10.43
2022-09-07T02:00:00.258Z,10.82
2022-09-07T02:03:09.903Z,10.85
2022-09-07T02:06:18.403Z,10.80
2022-09-07T02:09:28.943Z,10.30
2022-09-07T02:12:37.702Z,10.38
2022-09-07T02:15:53.557Z,10.32
2022-09-07T02:19:01.649Z,10.98
2022-09-07T02:22:11.442Z,11.23
2022-09-07T02:25:22.222Z,10.82
2022-09-07T02:28:31.118Z,10.90
2022-09-07T02:31:38.990Z,11.68
2022-09-07T02:34:44.004Z,11.68
2022-09-07T02:37:49.985Z,11.57
2022-09-07T02:40:56.068Z,11.30
2022-09-07T02:44:01.618Z,11.63
2022-09-07T02:47:23.181Z,11.35
2022-09-07T02:50:50.247Z,11.80
2022-09-07T02:54:20.871Z,11.27
2022-09-07T02:57:35.140Z,11.75
2022-09-07T03:03:59.002Z,11.80
2022-09-07T03:07:11.445Z,12.55
2022-09-07T03:10:18.112Z,12.32
2022-09-07T03:13:24.526Z,12.48
2022-09-07T03:16:29.492Z,12.88
2022-09-07T03:19:37.074Z,12.32
2022-09-07T03:22:42.378Z,12.32
2022-09-07T03:25:47.370Z,11.68
2022-09-07T03:28:52.289Z,12.15
2022-09-07T03:31:57.326Z,12.40
2022-09-07T03:35:05.706Z,13.15
2022-09-07T03:38:10.713Z,12.20
2022-09-07T03:41:15.660Z,11.75
2022-09-07T03:44:20.652Z,12.02
2022-09-07T03:47:25.646Z,12.65
2022-09-07T03:50:33.186Z,12.25
2022-09-07T03:53:40.013Z,12.40
2022-09-07T03:56:44.915Z,12.00
2022-09-07T03:59:49.953Z,11.75
2022-09-07T04:02:54.928Z,11.50
2022-09-07T04:06:04.463Z,11.98
2022-09-07T04:09:14.204Z,11.23
2022-09-07T04:12:19.127Z,11.27
2022-09-07T04:15:24.051Z,11.02
2022-09-07T04:18:29.313Z,11.02
2022-09-07T04:21:37.321Z,10.90
2022-09-07T04:24:42.276Z,10.45
2022-09-07T04:27:47.711Z,10.68
2022-09-07T04:30:52.725Z,10.98
2022-09-07T04:33:58.386Z,10.70
2022-09-07T04:37:06.935Z,10.63
2022-09-07T04:40:13.167Z,11.15
2022-09-07T04:43:18.123Z,10.98
2022-09-07T04:46:24.626Z,10.45
2022-09-07T04:49:29.578Z,10.70
2022-09-07T04:52:37.106Z,10.52
2022-09-07T04:55:42.062Z,10.95
2022-09-07T04:58:47.654Z,10.55
2022-09-07T05:01:52.653Z,11.35
2022-09-07T05:05:02.481Z,11.70
2022-09-07T05:08:10.340Z,10.30
2022-09-07T05:11:16.429Z,11.35
2022-09-07T05:14:21.402Z,10.27
2022-09-07T05:17:26.510Z,11.50
2022-09-07T05:20:31.398Z,9.68
2022-09-07T05:23:38.910Z,10.52
2022-09-07T05:26:43.835Z,10.13
2022-09-07T05:30:05.096Z,10.30
2022-09-07T05:33:11.139Z,9.75
2022-09-07T05:36:16.133Z,9.85
2022-09-07T05:39:23.807Z,8.43
2022-09-07T05:42:28.740Z,10.07
2022-09-07T05:45:34.321Z,9.60
2022-09-07T05:48:39.354Z,10.68
2022-09-07T05:51:44.262Z,9.02
2022-09-07T05:54:54.361Z,9.55
2022-09-07T05:58:01.505Z,10.05
2022-09-07T06:01:08.976Z,11.55
2022-09-07T06:04:13.935Z,11.82
2022-09-07T06:07:22.170Z,11.50
2022-09-07T06:10:46.640Z,13.38
2022-09-07T06:13:52.053Z,14.05
2022-09-07T06:16:57.027Z,14.40
2022-09-07T06:20:02.014Z,16.05
2022-09-07T06:23:07.327Z,16.15
2022-09-07T06:26:16.414Z,16.70
2022-09-07T06:29:21.445Z,17.38
2022-09-07T06:35:57.025Z,17.23
2022-09-07T06:39:02.941Z,18.33
2022-09-07T06:42:10.601Z,17.73
2022-09-07T06:45:21.121Z,19.10
2022-09-07T06:48:26.307Z,17.60
2022-09-07T06:51:32.270Z,17.00
2022-09-07T06:58:04.686Z,19.52
2022-09-07T07:01:11.689Z,18.17
2022-09-07T07:04:17.031Z,18.70
2022-09-07T07:07:21.946Z,17.40
2022-09-07T07:10:26.932Z,17.40
2022-09-07T07:13:34.649Z,18.02
2022-09-07T07:16:39.693Z,16.75
2022-09-07T07:19:44.653Z,18.55
2022-09-07T07:22:52.957Z,17.52
2022-09-07T07:25:57.877Z,17.85
2022-09-07T07:29:05.446Z,18.63
2022-09-07T07:32:10.421Z,17.00
2022-09-07T07:35:16.115Z,18.92
2022-09-07T07:41:54.426Z,18.35
2022-09-07T07:48:29.297Z,19.73
2022-09-07T07:52:49.914Z,19.45
2022-09-07T07:54:59.482Z,19.27
2022-09-07T07:58:04.384Z,18.58
2022-09-07T08:01:14.930Z,19.23
2022-09-07T08:04:19.966Z,20.05
2022-09-07T08:07:24.917Z,18.55
2022-09-07T08:10:30.290Z,18.95
2022-09-07T08:13:35.417Z,18.17
2022-09-07T08:16:45.493Z,19.75
2022-09-07T08:19:51.098Z,19.83
2022-09-07T08:22:56.062Z,18.48
2022-09-07T08:26:01.546Z,18.52
2022-09-07T08:29:06.629Z,18.65
2022-09-07T08:32:14.288Z,18.38
2022-09-07T08:35:19.963Z,18.52
2022-09-07T08:38:25.089Z,17.33
2022-09-07T08:42:00.373Z,17.88
2022-09-07T08:45:08.921Z,17.80
2022-09-07T08:48:21.110Z,17.42
2022-09-07T08:51:35.609Z,17.73
2022-09-07T08:54:41.769Z,17.50
2022-09-07T08:57:53.373Z,16.58
2022-09-07T09:04:28.980Z,16.25
2022-09-07T09:07:40.865Z,16.55
2022-09-07T09:10:56.558Z,15.82
2022-09-07T09:14:07.418Z,16.23
2022-09-07T09:17:18.690Z,15.15
2022-09-07T09:20:33.577Z,16.10
2022-09-07T09:23:42.828Z,15.60
2022-09-07T09:26:53.246Z,15.27
2022-09-07T09:29:58.150Z,16.45
2022-09-07T09:33:18.082Z,16.35
2022-09-07T09:36:36.814Z,15.90
2022-09-07T09:39:44.412Z,16.33
2022-09-07T09:42:50.747Z,14.68
2022-09-07T09:46:13.950Z,15.43
2022-09-07T09:49:22.773Z,15.10
2022-09-07T09:52:38.159Z,14.73
2022-09-07T09:55:54.870Z,14.63
2022-09-07T10:06:08.861Z,15.07
2022-09-07T10:09:20.922Z,14.32
2022-09-07T10:12:32.121Z,13.25
2022-09-07T10:15:40.967Z,13.52
2022-09-07T10:18:58.741Z,13.68
2022-09-07T10:22:04.937Z,15.00
2022-09-07T10:25:32.026Z,14.02
2022-09-07T10:32:19.549Z,13.52
2022-09-07T10:35:29.701Z,13.48
2022-09-07T10:38:42.569Z,13.63
2022-09-07T10:41:57.297Z,13.30
2022-09-07T10:45:12.679Z,12.63
2022-09-07T10:48:22.542Z,11.57
2022-09-07T10:51:36.973Z,10.93
2022-09-07T10:54:48.554Z,10.27
2022-09-07T10:58:09.333Z,9.70
2022-09-07T11:01:21.812Z,10.02
2022-09-07T11:04:39.907Z,8.52
2022-09-07T11:07:59.798Z,7.55
2022-09-07T11:11:12.300Z,8.10
2022-09-07T11:14:25.005Z,7.20
2022-09-07T11:17:32.775Z,7.55
2022-09-07T11:20:42.099Z,7.78
2022-09-07T11:23:52.842Z,7.22
2022-09-07T11:27:03.142Z,7.43
2022-09-07T11:30:22.480Z,8.55
2022-09-07T11:33:31.388Z,6.60
2022-09-07T11:36:41.782Z,6.38
2022-09-07T11:39:50.964Z,7.68
2022-09-07T11:42:59.831Z,7.28
2022-09-07T11:46:13.017Z,6.97
2022-09-07T11:49:22.973Z,7.10
2022-09-07T11:52:36.657Z,6.05
2022-09-07T11:55:46.979Z,5.88
2022-09-07T11:59:16.491Z,6.03
2022-09-07T12:02:59.281Z,5.93
2022-09-07T12:06:42.725Z,6.35
2022-09-07T12:10:15.772Z,7.05
2022-09-07T12:13:46.426Z,6.38
2022-09-07T12:17:29.206Z,5.65
2022-09-07T12:20:46.681Z,5.85
2022-09-07T12:23:51.745Z,5.55
2022-09-07T12:26:58.668Z,5.75
2022-09-07T12:30:33.813Z,5.95
2022-09-07T12:33:40.354Z,6.50
2022-09-07T12:36:52.986Z,5.80
2022-09-07T12:40:27.927Z,5.70
2022-09-07T12:43:38.773Z,5.13
2022-09-07T12:47:02.644Z,5.50
2022-09-07T12:50:24.210Z,5.72
2022-09-07T12:53:42.179Z,6.82
2022-09-07T12:57:29.065Z,6.82
2022-09-07T13:00:20.678Z,6.13
2022-09-07T13:03:55.814Z,5.97
2022-09-07T13:07:27.619Z,5.05
2022-09-07T13:10:37.593Z,4.65
2022-09-07T13:17:42.428Z,4.63
2022-09-07T13:20:48.513Z,5.03
2022-09-07T13:24:48.992Z,4.90
2022-09-07T13:27:59.638Z,5.07
2022-09-07T13:31:27.486Z,4.97
2022-09-07T13:34:42.779Z,5.00
2022-09-07T13:37:53.741Z,5.07
2022-09-07T13:41:06.159Z,6.55
2022-09-07T13:44:25.820Z,7.60
2022-09-07T13:47:48.053Z,8.55
2022-09-07T13:51:01.748Z,9.98
2022-09-07T13:54:13.439Z,8.82
2022-09-07T13:57:28.354Z,4.65
2022-09-07T14:00:36.556Z,2.90
2022-09-07T14:03:50.437Z,2.22
2022-09-07T14:07:06.674Z,1.67
2022-09-07T14:10:19.386Z,1.98
2022-09-07T14:13:24.279Z,1.65
2022-09-07T14:16:31.848Z,3.95
2022-09-07T14:19:40.979Z,4.40
2022-09-07T14:22:52.061Z,4.38
2022-09-07T14:26:18.062Z,3.70
2022-09-07T14:29:30.094Z,3.50
2022-09-07T14:32:37.632Z,3.20
2022-09-07T14:35:44.090Z,3.83
2022-09-07T14:39:05.413Z,2.90
2022-09-07T14:42:13.462Z,1.63
2022-09-07T14:45:32.563Z,2.20
2022-09-07T14:48:41.954Z,2.88
2022-09-07T14:51:48.483Z,3.08
2022-09-07T14:54:54.937Z,4.38
2022-09-07T14:58:25.541Z,4.25
2022-09-07T15:01:38.290Z,4.43
2022-09-07T15:04:46.465Z,4.82
2022-09-07T15:07:53.365Z,4.18
2022-09-07T15:14:29.814Z,5.65
2022-09-07T15:17:43.255Z,5.40
2022-09-07T15:20:51.286Z,4.15
2022-09-07T15:23:58.625Z,4.60
2022-09-07T15:27:03.979Z,4.47
2022-09-07T15:30:12.321Z,4.28
2022-09-07T15:33:17.237Z,3.97
2022-09-07T15:36:24.874Z,4.68
2022-09-07T15:39:31.366Z,5.10
2022-09-07T15:46:03.518Z,4.15
2022-09-07T15:49:08.726Z,3.13
2022-09-07T15:52:16.189Z,3.72
2022-09-07T15:55:21.093Z,3.80
2022-09-07T15:58:26.041Z,3.60
2022-09-07T16:04:55.877Z,3.30
2022-09-07T16:11:29.962Z,3.00
2022-09-07T16:14:35.264Z,3.20
2022-09-07T16:17:47.228Z,4.68
2022-09-07T16:20:53.249Z,5.70
2022-09-07T16:24:00.830Z,7.28
2022-09-07T16:27:06.230Z,6.28
2022-09-07T16:30:13.495Z,7.68
2022-09-07T16:33:18.494Z,6.15
2022-09-07T16:36:24.557Z,6.60
2022-09-07T16:39:32.166Z,7.20
2022-09-07T16:42:37.701Z,6.80
2022-09-07T16:49:08.604Z,5.45
2022-09-07T16:52:13.466Z,5.32
2022-09-07T16:55:21.083Z,4.70
2022-09-07T16:58:41.242Z,4.70
2022-09-07T17:01:46.169Z,5.10
2022-09-07T17:04:51.872Z,4.40
2022-09-07T17:07:57.893Z,4.43
2022-09-07T17:11:07.216Z,4.82
2022-09-07T17:14:13.478Z,4.20
2022-09-07T17:17:20.105Z,4.25
2022-09-07T17:20:25.288Z,4.10
2022-09-07T17:23:30.682Z,4.07
2022-09-07T17:26:38.522Z,3.75
2022-09-07T17:29:43.388Z,4.43
2022-09-07T17:32:48.298Z,3.97
2022-09-07T17:35:55.414Z,4.20
2022-09-07T17:39:18.028Z,4.53
2022-09-07T17:43:38.753Z,4.60
2022-09-07T17:45:53.209Z,5.25
2022-09-07T17:49:00.883Z,5.38
2022-09-07T17:52:06.394Z,6.57
2022-09-07T17:55:11.473Z,5.72
2022-09-07T17:58:18.914Z,5.60
2022-09-07T18:01:24.823Z,7.55
2022-09-07T18:04:29.944Z,5.85
2022-09-07T18:07:35.150Z,5.20
2022-09-07T18:14:08.330Z,5.80
2022-09-07T18:17:13.300Z,5.22
2022-09-07T18:20:19.195Z,5.88
2022-09-07T18:23:24.314Z,6.40
2022-09-07T18:26:29.773Z,5.63
2022-09-07T18:29:37.351Z,5.25
2022-09-07T18:32:42.425Z,5.40
2022-09-07T18:35:48.437Z,5.03
2022-09-07T18:38:54.049Z,4.43
2022-09-07T18:41:59.227Z,5.05
2022-09-07T18:48:32.709Z,5.00
2022-09-07T18:55:02.534Z,5.75
2022-09-07T18:58:07.385Z,5.75
2022-09-07T19:01:16.645Z,4.93
2022-09-07T19:04:22.025Z,5.45
2022-09-07T19:07:29.872Z,4.95
2022-09-07T19:10:38.625Z,4.97
2022-09-07T19:13:43.717Z,4.72
2022-09-07T19:16:51.717Z,5.40
2022-09-07T19:19:56.611Z,5.03
2022-09-07T19:23:01.530Z,5.35
2022-09-07T19:26:08.575Z,5.20
2022-09-07T19:29:16.906Z,5.18
2022-09-07T19:32:25.576Z,5.35
2022-09-07T19:35:30.942Z,5.35
2022-09-07T19:38:36.215Z,5.63
2022-09-07T19:41:45.075Z,5.85
2022-09-07T19:44:49.933Z,5.68
2022-09-07T19:47:57.386Z,5.57
2022-09-07T19:51:06.912Z,5.30
2022-09-07T19:54:12.793Z,6.25
2022-09-07T19:57:17.898Z,6.43
2022-09-07T20:00:24.698Z,6.53
2022-09-07T20:03:32.392Z,6.10
2022-09-07T20:06:39.794Z,6.22
2022-09-07T20:09:44.779Z,6.80
2022-09-07T20:12:49.742Z,6.72
2022-09-07T20:15:55.308Z,7.13
2022-09-07T20:19:03.423Z,6.95
2022-09-07T20:22:08.453Z,7.32
2022-09-07T20:25:13.534Z,7.90
2022-09-07T20:28:18.460Z,7.53
2022-09-07T20:31:23.540Z,8.00
2022-09-07T20:34:32.208Z,8.95
2022-09-07T20:37:37.193Z,8.45
2022-09-07T20:40:42.181Z,8.40
2022-09-07T20:43:47.075Z,8.63
2022-09-07T20:46:52.138Z,8.43
2022-09-07T20:49:59.678Z,8.73
2022-09-07T20:53:04.754Z,7.72
2022-09-07T20:56:13.322Z,8.68
2022-09-07T20:59:18.258Z,8.50
2022-09-07T21:02:23.242Z,9.45
2022-09-07T21:05:30.858Z,9.23
2022-09-07T21:08:38.322Z,10.05
2022-09-07T21:11:46.153Z,10.43
2022-09-07T21:14:53.970Z,10.15
2022-09-07T21:17:58.858Z,10.55
2022-09-07T21:21:22.144Z,10.40
2022-09-07T21:24:27.334Z,10.35
2022-09-07T21:27:38.761Z,11.70
2022-09-07T21:30:43.920Z,11.80
2022-09-07T21:33:48.851Z,11.07
2022-09-07T21:36:56.474Z,12.35
2022-09-07T21:40:03.165Z,11.98
2022-09-07T21:43:08.345Z,12.35
2022-09-07T21:46:16.029Z,13.00
2022-09-07T21:49:20.957Z,12.10
2022-09-07T21:52:28.534Z,12.00
2022-09-07T21:55:33.977Z,12.35
2022-09-07T21:58:39.925Z,13.10
2022-09-07T22:01:44.833Z,13.18
2022-09-07T22:04:49.823Z,13.48
2022-09-07T22:07:57.259Z,15.23
2022-09-07T22:11:07.752Z,13.23
2022-09-07T22:14:15.756Z,14.25
2022-09-07T22:17:20.657Z,14.48
2022-09-07T22:20:25.530Z,14.65
2022-09-07T22:23:35.165Z,14.35
2022-09-07T22:26:40.941Z,15.32
2022-09-07T22:29:45.804Z,16.33
2022-09-07T22:32:51.514Z,14.73
2022-09-07T22:35:56.354Z,16.02
2022-09-07T22:39:06.265Z,15.77
2022-09-07T22:42:11.146Z,15.70
2022-09-07T22:45:16.014Z,16.90
2022-09-07T22:48:20.922Z,15.63
2022-09-07T22:51:26.765Z,15.80
2022-09-07T22:54:34.321Z,15.40
2022-09-07T22:57:39.201Z,16.20
2022-09-07T23:00:44.686Z,15.93
2022-09-07T23:03:49.949Z,16.95
2022-09-07T23:06:54.954Z,16.88
2022-09-07T23:10:02.431Z,17.88
2022-09-07T23:13:09.021Z,16.90
2022-09-07T23:16:14.029Z,17.33
2022-09-07T23:19:20.580Z,18.75
2022-09-07T23:22:25.429Z,17.98
2022-09-07T23:25:32.953Z,17.42
2022-09-07T23:28:38.085Z,19.65
2022-09-07T23:31:43.321Z,20.50
2022-09-07T23:34:48.624Z,20.33
2022-09-07T23:37:53.878Z,18.30
2022-09-07T23:41:02.370Z,19.40
2022-09-07T23:44:07.601Z,20.60
2022-09-07T23:47:12.516Z,19.80
2022-09-07T23:50:17.415Z,18.88
2022-09-07T23:53:23.481Z,20.35
2022-09-07T23:56:31.206Z,20.00
2022-09-07T23:59:36.687Z,18.80
